Time;durP1;ratioP1;P1;durP2;ratioP2;P2;SDS_P1;SDS_P2;PMS_P1;PMS_P2;Temp;Humidity;BMP_temperature;BMP_pressure;BME280_temperature;BME280_humidity;BME280_pressure;Samples;Min_cycle;Max_cycle;Signal;HPM_P1;HPM_P2
2022/01/12 00:00:19;;;;;;;;;37.00;31.25;;;;;21.49;43.28;102747.38;5027938;28;48266;-80
2022/01/12 00:02:44;;;;;;;;;36.50;31.75;;;;;21.48;43.47;102747.38;5060815;28;45398;-80
2022/01/12 00:05:10;;;;;;;;;33.25;30.25;;;;;21.48;43.07;102739.41;5044539;28;45360;-80
2022/01/12 00:07:35;;;;;;;;;40.25;33.25;;;;;21.45;43.00;102735.84;5060832;28;45502;-80
2022/01/12 00:10:00;;;;;;;;;35.00;31.25;;;;;21.42;42.88;102725.25;5060469;28;49898;-80
2022/01/12 00:12:26;;;;;;;;;37.00;30.75;;;;;21.41;42.69;102725.28;5076753;28;63007;-80
2022/01/12 00:14:52;;;;;;;;;33.75;31.75;;;;;21.41;42.99;102726.16;5077754;28;45456;-80
2022/01/12 00:17:17;;;;;;;;;34.50;31.00;;;;;21.45;42.91;102738.50;5077298;28;45441;-80
2022/01/12 00:19:43;;;;;;;;;34.50;31.25;;;;;21.41;42.90;102722.59;5060504;28;47033;-80
2022/01/12 00:22:09;;;;;;;;;40.25;33.25;;;;;21.41;42.98;102727.94;5027140;28;45269;-80
2022/01/12 00:35:31;;;;;;;;;34.50;32.25;;;;;21.37;42.98;102740.34;5060715;28;45331;-80
2022/01/12 00:37:56;;;;;;;;;37.00;30.50;;;;;21.37;42.65;102758.94;5043518;28;47064;-80
2022/01/12 00:40:22;;;;;;;;;37.25;33.00;;;;;21.37;42.75;102742.09;5042699;28;54104;-80
2022/01/12 00:42:47;;;;;;;;;41.25;33.50;;;;;21.36;42.97;102741.22;5042734;28;60508;-80
2022/01/12 00:45:13;;;;;;;;;30.25;28.25;;;;;21.36;43.08;102733.25;5043347;28;45471;-80
2022/01/12 00:47:38;;;;;;;;;35.25;33.25;;;;;21.34;42.53;102740.34;5026758;28;45206;-80
2022/01/12 00:50:04;;;;;;;;;32.25;30.75;;;;;21.35;42.22;102744.75;5042771;28;46700;-80
2022/01/12 00:52:29;;;;;;;;;37.75;31.00;;;;;21.34;43.23;102758.94;5043378;28;45792;-80
2022/01/12 00:54:55;;;;;;;;;36.00;30.50;;;;;21.35;43.21;102754.50;5060152;28;45309;-80
2022/01/12 00:57:20;;;;;;;;;34.75;29.25;;;;;21.32;43.05;102747.44;5025516;28;45189;-80
2022/01/12 00:59:46;;;;;;;;;31.00;29.75;;;;;21.33;42.68;102767.78;5026266;28;50597;-80
2022/01/12 01:02:11;;;;;;;;;36.50;30.00;;;;;21.34;42.81;102779.28;5042831;28;62982;-80
2022/01/12 01:04:36;;;;;;;;;37.25;32.75;;;;;21.32;42.58;102765.16;5042748;28;55287;-80
2022/01/12 01:07:02;;;;;;;;;30.00;23.25;;;;;21.33;42.90;102772.22;5043249;28;45260;-80
2022/01/12 01:09:27;;;;;;;;;39.00;31.25;;;;;21.33;42.39;102778.41;5042727;28;47584;-80
2022/01/12 01:11:53;;;;;;;;;36.00;31.50;;;;;21.33;42.65;102782.84;5059768;28;45344;-80
2022/01/12 01:14:33;;;;;;;;;30.25;27.75;;;;;21.33;42.97;102786.38;5026353;28;45687;-80
2022/01/12 01:27:56;;;;;;;;;30.00;29.25;;;;;21.29;42.89;102792.59;5043526;28;45413;-80
2022/01/12 01:30:21;;;;;;;;;36.25;30.75;;;;;21.29;42.48;102803.22;5025826;28;49634;-80
2022/01/12 01:32:47;;;;;;;;;38.00;32.00;;;;;21.27;42.07;102812.94;5059221;28;56370;-80
2022/01/12 01:35:12;;;;;;;;;36.00;31.25;;;;;21.27;42.50;102810.28;5042988;28;45371;-80
2022/01/12 01:37:40;;;;;;;;;38.75;32.00;;;;;21.27;42.49;102809.41;5026283;28;45278;-80
2022/01/12 01:40:08;;;;;;;;;34.25;31.25;;;;;21.26;42.58;102823.56;5043073;28;47330;-80
2022/01/12 01:43:16;;;;;;;;;29.50;29.00;;;;;21.27;42.50;102825.34;5042358;28;45324;-80
2022/01/12 01:53:41;;;;;;;;;40.50;34.50;;;;;21.24;42.50;102826.22;5045105;28;45316;-81
2022/01/12 01:56:06;;;;;;;;;35.25;30.50;;;;;21.23;42.66;102824.44;5041762;28;53819;-80
2022/01/12 01:58:32;;;;;;;;;38.50;32.75;;;;;21.24;42.73;102826.22;5042374;28;45261;-80
2022/01/12 02:00:57;;;;;;;;;37.00;31.50;;;;;21.25;42.58;102811.16;5041749;28;58233;-80
2022/01/12 02:03:27;;;;;;;;;32.00;31.25;;;;;21.23;42.53;102818.25;5059032;28;45364;-80
2022/01/12 02:05:53;;;;;;;;;35.25;31.25;;;;;21.24;42.57;102831.53;5059034;28;45252;-80
2022/01/12 02:08:18;;;;;;;;;32.00;29.50;;;;;21.23;42.84;102832.41;5041998;28;45244;-80
2022/01/12 02:10:44;;;;;;;;;31.50;29.00;;;;;21.23;42.60;102824.44;5041680;28;47309;-79
2022/01/12 02:13:10;;;;;;;;;34.25;31.00;;;;;21.23;42.67;102816.47;5058898;28;45889;-80
2022/01/12 02:15:35;;;;;;;;;33.00;30.50;;;;;21.21;42.80;102810.28;5059120;28;45254;-80
2022/01/12 02:18:37;;;;;;;;;37.50;32.25;;;;;21.22;42.88;102817.38;5058907;28;45344;-80
2022/01/12 02:40:07;;;;;;;;;29.00;28.00;;;;;21.15;42.40;102800.56;5058654;28;45264;-80
2022/01/12 02:42:33;;;;;;;;;36.25;31.25;;;;;21.14;42.37;102787.28;5041730;28;47350;-80
2022/01/12 02:50:40;;;;;;;;;34.25;30.50;;;;;21.13;42.25;102789.06;5059713;28;45290;-80
2022/01/12 02:50:56;;;;;;;;;34.75;29.75;;;;;21.10;42.49;102767.81;5025862;28;46539;-80
2022/01/12 02:53:41;;;;;;;;;33.00;30.50;;;;;21.09;42.51;102763.38;5053172;28;45843;-80
2022/01/12 02:56:13;;;;;;;;;34.50;31.25;;;;;21.11;41.97;102774.91;5058006;28;45748;-80
2022/01/12 02:58:39;;;;;;;;;34.25;29.50;;;;;21.12;42.42;102768.72;5042394;28;45292;-80
2022/01/12 03:03:37;;;;;;;;;35.25;29.00;;;;;21.11;42.06;102768.69;5058346;28;45278;-80
2022/01/12 03:06:05;;;;;;;;;31.75;29.75;;;;;21.09;42.17;102766.03;5024854;28;46084;-80
2022/01/12 03:08:37;;;;;;;;;29.25;28.25;;;;;21.09;42.22;102765.16;5058785;28;45415;-80
2022/01/12 03:11:13;;;;;;;;;32.50;26.25;;;;;21.11;42.09;102781.97;5026112;28;45337;-80
2022/01/12 03:13:38;;;;;;;;;35.25;31.25;;;;;21.09;41.99;102781.09;5024802;28;47089;-80
2022/01/12 03:16:14;;;;;;;;;39.00;29.00;;;;;21.07;42.17;102789.06;5041420;28;45413;-80
2022/01/12 03:18:43;;;;;;;;;31.50;29.50;;;;;21.08;41.81;102798.78;5043066;28;45338;-80
2022/01/12 03:21:09;;;;;;;;;32.50;29.00;;;;;21.07;41.88;102809.41;5062739;28;45292;-80
2022/01/12 03:23:34;;;;;;;;;33.75;31.25;;;;;21.08;41.66;102814.72;5044621;28;46608;-80
2022/01/12 03:26:00;;;;;;;;;32.00;29.50;;;;;21.08;41.47;102811.19;5061044;28;45254;-80
2022/01/12 03:28:25;;;;;;;;;37.25;31.00;;;;;21.08;41.92;102816.50;5044799;28;45486;-80
2022/01/12 03:36:22;;;;;;;;;27.75;24.25;;;;;21.05;41.44;102803.25;5046035;28;45389;-80
2022/01/12 03:38:40;;;;;;;;;30.50;27.50;;;;;21.04;42.02;102806.78;5062393;28;45340;-80
2022/01/12 03:41:05;;;;;;;;;35.25;31.25;;;;;21.04;41.68;102818.28;5044076;28;50377;-80
2022/01/12 03:43:30;;;;;;;;;28.75;27.75;;;;;21.02;41.55;102803.22;5027567;28;46891;-80
2022/01/12 03:45:56;;;;;;;;;30.25;27.00;;;;;21.00;41.75;102805.00;5044368;28;45864;-80
2022/01/12 03:48:21;;;;;;;;;31.75;27.00;;;;;21.01;41.58;102801.44;5044017;28;57751;-80
2022/01/12 03:50:48;;;;;;;;;30.00;25.00;;;;;21.00;41.56;102805.00;5061247;28;45611;-80
2022/01/12 03:53:14;;;;;;;;;34.25;29.75;;;;;21.03;41.97;102807.69;5062210;28;45586;-80
2022/01/12 03:55:40;;;;;;;;;28.25;26.75;;;;;21.02;41.74;102820.03;5060795;28;45268;-80
2022/01/12 03:58:06;;;;;;;;;36.00;31.00;;;;;21.02;41.49;102828.00;5061278;28;45675;-80
2022/01/12 04:00:31;;;;;;;;;35.25;28.75;;;;;20.97;41.82;102819.16;5061249;28;45351;-80
2022/01/12 04:02:56;;;;;;;;;31.50;28.75;;;;;20.98;41.65;102825.38;5060604;28;46793;-80
2022/01/12 04:08:19;;;;;;;;;31.50;28.50;;;;;21.02;41.70;102841.28;5046515;28;45427;-80
2022/01/12 04:10:48;;;;;;;;;31.75;25.25;;;;;21.00;41.68;102834.19;5030701;28;45514;-80
2022/01/12 04:13:14;;;;;;;;;33.75;29.50;;;;;21.00;41.35;102850.13;5060696;28;47492;-80
2022/01/12 04:15:44;;;;;;;;;31.50;27.50;;;;;21.01;41.42;102854.56;5044038;28;45343;-80
2022/01/12 04:18:09;;;;;;;;;30.75;26.50;;;;;21.00;41.72;102851.00;5044680;28;45505;-79
2022/01/12 04:20:38;;;;;;;;;32.75;29.00;;;;;21.00;41.50;102858.97;5060611;28;45543;-79
2022/01/12 04:23:18;;;;;;;;;26.25;25.25;;;;;20.98;41.48;102860.75;5044459;28;45853;-79
2022/01/12 04:25:52;;;;;;;;;40.00;31.00;;;;;20.97;41.49;102863.41;5045305;28;45460;-79
2022/01/12 04:28:18;;;;;;;;;35.25;28.00;;;;;20.99;41.43;102872.25;5060959;28;45241;-79
2022/01/12 04:30:43;;;;;;;;;28.75;27.25;;;;;20.97;41.19;102863.41;5042617;28;45552;-79
2022/01/12 04:33:09;;;;;;;;;31.75;26.25;;;;;20.98;41.29;102868.72;5043749;28;45454;-79
2022/01/12 04:35:37;;;;;;;;;35.75;29.75;;;;;20.97;41.28;102869.59;5043524;28;45481;-79
2022/01/12 04:38:03;;;;;;;;;30.75;28.50;;;;;20.94;41.68;102871.34;5044531;28;45244;-79
2022/01/12 04:40:29;;;;;;;;;34.75;28.50;;;;;20.99;41.65;102880.22;5043103;28;45272;-79
2022/01/12 04:42:55;;;;;;;;;28.50;26.00;;;;;20.98;41.59;102878.47;5043457;28;46913;-79
2022/01/12 04:48:19;;;;;;;;;31.50;27.75;;;;;20.96;41.08;102894.38;5061700;28;45449;-79
2022/01/12 04:50:45;;;;;;;;;31.50;28.00;;;;;20.97;41.18;102882.88;5048462;28;45390;-79
2022/01/12 04:53:11;;;;;;;;;35.50;31.25;;;;;20.98;41.30;102881.13;5061509;28;46557;-79
2022/01/12 04:55:37;;;;;;;;;29.50;26.25;;;;;20.99;41.50;102882.88;5059897;28;45454;-79
2022/01/12 04:58:03;;;;;;;;;28.50;26.25;;;;;20.98;41.65;102874.03;5043620;28;45343;-78
2022/01/12 05:00:30;;;;;;;;;30.25;25.25;;;;;20.99;41.42;102874.91;5060276;28;45470;-78
2022/01/12 05:13:36;;;;;;;;;32.75;26.75;;;;;21.01;41.26;102892.59;5045904;28;45234;-79
2022/01/12 05:16:01;;;;;;;;;36.00;29.00;;;;;21.01;41.27;102902.34;5043068;28;45198;-79
2022/01/12 05:18:28;;;;;;;;;33.25;24.75;;;;;21.02;41.39;102901.44;5049226;28;45382;-78
2022/01/12 05:20:53;;;;;;;;;31.25;26.00;;;;;21.02;41.39;102912.06;5059707;28;46212;-79
2022/01/12 05:23:19;;;;;;;;;34.25;28.75;;;;;21.02;41.17;102901.44;5043080;28;45370;-78
2022/01/12 05:25:47;;;;;;;;;31.25;30.25;;;;;21.02;41.50;102904.09;5042397;28;45432;-79
2022/01/12 05:28:13;;;;;;;;;39.25;30.75;;;;;21.02;41.09;102896.13;5043786;28;45363;-79
2022/01/12 05:30:39;;;;;;;;;30.50;28.25;;;;;20.99;41.43;102885.53;5042838;28;45497;-79
2022/01/12 05:33:04;;;;;;;;;27.50;25.75;;;;;21.00;41.35;102885.53;5042896;28;45262;-79
2022/01/12 05:35:32;;;;;;;;;33.00;28.75;;;;;21.03;41.39;102882.91;5025940;28;45213;-79
2022/01/12 05:37:59;;;;;;;;;28.75;25.00;;;;;21.02;41.31;102877.56;5043515;28;45483;-79
2022/01/12 05:40:24;;;;;;;;;26.50;26.50;;;;;21.03;41.24;102868.72;5041981;28;45644;-79
2022/01/12 05:42:51;;;;;;;;;36.25;30.50;;;;;21.05;41.47;102882.88;5025602;28;48302;-79
2022/01/12 05:45:18;;;;;;;;;34.75;27.75;;;;;21.03;41.50;102884.66;5059211;28;45395;-79
2022/01/12 05:50:10;;;;;;;;;32.25;29.75;;;;;21.04;41.22;102883.78;5042438;28;45564;-80
2022/01/12 05:52:36;;;;;;;;;32.50;27.00;;;;;21.06;41.54;102880.22;5043873;28;46546;-80
2022/01/12 05:55:02;;;;;;;;;26.75;23.50;;;;;21.08;41.76;102882.88;5044739;28;45264;-76
2022/01/12 05:57:30;;;;;;;;;35.25;30.25;;;;;21.10;42.36;102878.44;5060559;28;45357;-82
2022/01/12 05:59:56;;;;;;;;;31.25;29.75;;;;;21.13;42.77;102881.13;5044273;28;45300;-85
2022/01/12 06:02:21;;;;;;;;;36.50;29.75;;;;;21.21;45.61;102886.44;5025676;28;47633;-74
2022/01/12 06:04:47;;;;;;;;;33.75;31.25;;;;;21.28;43.21;102894.41;5059317;28;45464;-78
2022/01/12 06:07:12;;;;;;;;;32.25;30.00;;;;;21.45;43.59;102913.84;5060527;28;45403;-78
2022/01/12 06:09:37;;;;;;;;;29.25;27.75;;;;;21.60;43.21;102914.72;5058901;28;45306;-76
2022/01/12 06:12:03;;;;;;;;;34.25;28.25;;;;;21.71;42.83;102908.50;5060027;28;46161;-76
2022/01/12 06:14:29;;;;;;;;;28.75;26.50;;;;;21.82;42.97;102904.94;5060100;28;45208;-79
2022/01/12 06:16:55;;;;;;;;;31.25;24.75;;;;;21.88;43.29;102895.16;5059467;28;45434;-75
2022/01/12 06:19:20;;;;;;;;;33.50;28.50;;;;;21.93;43.17;102901.34;5025516;28;45717;-75
2022/01/12 06:21:46;;;;;;;;;32.25;28.25;;;;;21.94;43.08;102900.47;5043597;28;47139;-77
2022/01/12 06:24:11;;;;;;;;;33.75;29.25;;;;;21.98;43.17;102899.56;5041777;28;51879;-77
2022/01/12 06:26:37;;;;;;;;;32.50;31.25;;;;;21.98;43.18;102901.34;5058788;28;45332;-77
2022/01/12 06:31:57;;;;;;;;;30.25;24.25;;;;;21.97;43.75;102900.44;5035568;28;45520;-80
2022/01/12 06:34:22;;;;;;;;;33.50;28.75;;;;;21.97;43.80;102897.78;5058955;28;45308;-76
2022/01/12 06:36:48;;;;;;;;;33.00;27.25;;;;;21.94;43.95;102897.81;5058670;28;45711;-76
2022/01/12 06:39:17;;;;;;;;;33.00;26.75;;;;;21.93;43.81;102905.78;5039460;28;45335;-75
2022/01/12 06:41:43;;;;;;;;;29.50;26.00;;;;;21.91;43.72;102903.13;5037940;28;48159;-76
2022/01/12 06:44:08;;;;;;;;;36.00;30.75;;;;;21.88;43.89;102910.22;5040024;28;45396;-76
2022/01/12 06:46:35;;;;;;;;;26.00;26.00;;;;;21.85;43.71;102905.81;5040312;28;45288;-76
2022/01/12 06:49:01;;;;;;;;;43.25;33.00;;;;;21.87;43.37;102908.47;5046824;28;45526;-75
2022/01/12 06:51:26;;;;;;;;;33.75;28.00;;;;;21.84;43.96;102903.16;5058386;28;45339;-76
2022/01/12 06:53:57;;;;;;;;;31.75;25.50;;;;;21.84;43.23;102905.81;5058843;28;45307;-76
2022/01/12 06:56:22;;;;;;;;;35.25;26.50;;;;;21.83;43.44;102912.91;5046181;28;45529;-76
2022/01/12 06:58:48;;;;;;;;;35.50;27.25;;;;;21.81;43.74;102913.81;5044673;28;66514;-76
2022/01/12 07:01:13;;;;;;;;;37.25;30.00;;;;;21.81;44.17;102920.00;5044644;28;46943;-75
2022/01/12 07:03:39;;;;;;;;;30.00;28.50;;;;;21.83;43.81;102923.53;5028577;28;45260;-77
2022/01/12 07:06:04;;;;;;;;;32.50;27.75;;;;;21.83;43.88;102920.88;5061759;28;45277;-74
2022/01/12 07:08:32;;;;;;;;;33.00;27.50;;;;;21.83;44.13;102926.19;5045205;28;45612;-75
2022/01/12 07:10:57;;;;;;;;;34.75;31.25;;;;;21.81;43.20;102930.66;5045401;28;47759;-75
2022/01/12 07:13:23;;;;;;;;;39.75;31.50;;;;;21.81;43.42;102920.00;5045085;28;45501;-76
2022/01/12 07:15:48;;;;;;;;;33.50;29.50;;;;;21.80;43.29;102918.22;5044219;28;59975;-75
2022/01/12 07:18:14;;;;;;;;;31.25;30.25;;;;;21.80;43.78;102915.56;5061543;28;45437;-75
2022/01/12 07:20:40;;;;;;;;;36.00;31.25;;;;;21.78;43.24;102898.75;5061204;28;45512;-76
2022/01/12 07:23:05;;;;;;;;;34.25;30.00;;;;;21.79;43.05;102899.63;5062313;28;59201;-75
2022/01/12 07:25:30;;;;;;;;;35.50;27.00;;;;;21.78;43.45;102903.16;5043864;28;52293;-75
2022/01/12 07:27:58;;;;;;;;;34.25;30.50;;;;;21.77;43.56;102901.41;5061614;28;45432;-75
2022/01/12 07:30:24;;;;;;;;;34.50;31.00;;;;;21.77;43.13;102902.28;5043743;28;65669;-76
2022/01/12 07:32:50;;;;;;;;;32.50;30.00;;;;;21.76;43.27;102907.63;5028019;28;45267;-77
2022/01/12 07:35:16;;;;;;;;;32.50;28.00;;;;;21.76;43.11;102919.13;5061411;28;45294;-76
2022/01/12 07:37:41;;;;;;;;;36.25;30.00;;;;;21.75;43.42;102919.13;5044088;28;57129;-75
2022/01/12 07:40:07;;;;;;;;;36.25;31.00;;;;;21.73;43.24;102925.34;5043673;28;60288;-76
2022/01/12 07:42:33;;;;;;;;;34.75;31.50;;;;;21.73;43.43;102928.00;5059955;28;45438;-75
2022/01/12 07:45:00;;;;;;;;;31.00;26.50;;;;;21.72;43.52;102942.19;5044714;28;45660;-75
2022/01/12 07:47:29;;;;;;;;;33.25;29.00;;;;;21.72;43.33;102936.88;5044744;28;45625;-75
2022/01/12 07:49:55;;;;;;;;;35.25;27.00;;;;;21.71;43.30;102951.00;5044334;28;45570;-75
2022/01/12 07:52:20;;;;;;;;;33.25;28.50;;;;;21.70;43.42;102949.25;5061257;28;45300;-76
2022/01/12 07:54:45;;;;;;;;;30.50;25.50;;;;;21.70;43.58;102962.53;5026762;28;57271;-76
2022/01/12 07:57:11;;;;;;;;;37.25;32.25;;;;;21.68;43.02;102964.31;5060909;28;45266;-76
2022/01/12 07:59:36;;;;;;;;;38.00;30.75;;;;;21.68;43.74;102961.66;5027121;28;52666;-76
2022/01/12 08:02:02;;;;;;;;;31.00;26.75;;;;;21.68;43.69;102966.97;5044174;28;45197;-76
2022/01/12 08:04:27;;;;;;;;;30.25;24.50;;;;;21.68;43.21;102966.09;5044101;28;45283;-76
2022/01/12 08:06:53;;;;;;;;;34.25;30.00;;;;;21.69;43.71;102965.22;5026923;28;46398;-76
2022/01/12 08:09:18;;;;;;;;;28.50;26.50;;;;;21.69;43.80;102965.22;5060829;28;45583;-76
2022/01/12 08:11:44;;;;;;;;;31.00;23.75;;;;;21.69;43.85;102974.06;5043455;28;55697;-76
2022/01/12 08:14:09;;;;;;;;;35.50;32.00;;;;;21.69;42.29;102973.19;5043846;28;45626;-76
2022/01/12 08:16:34;;;;;;;;;38.75;31.75;;;;;21.59;42.54;102990.03;5042693;28;61244;-76
2022/01/12 08:19:00;;;;;;;;;43.00;33.75;;;;;21.45;40.49;103001.53;5061660;28;46182;-73
2022/01/12 08:21:27;;;;;;;;;40.50;34.00;;;;;21.25;40.03;102997.06;5042596;28;45446;-75
2022/01/12 08:23:52;;;;;;;;;47.50;36.25;;;;;21.09;39.54;102998.81;5016507;28;45463;-75
2022/01/12 08:26:18;;;;;;;;;43.25;36.00;;;;;20.95;39.68;103009.44;5056168;28;45474;-75
2022/01/12 08:28:43;;;;;;;;;44.50;35.25;;;;;20.84;39.63;103011.16;5061633;28;55427;-75
2022/01/12 08:31:09;;;;;;;;;46.00;33.75;;;;;20.76;39.84;103011.16;5056977;28;45328;-74
2022/01/12 08:33:34;;;;;;;;;41.75;35.25;;;;;20.69;39.59;103017.31;5056904;28;45337;-74
2022/01/12 08:35:59;;;;;;;;;48.00;36.00;;;;;20.63;39.94;103030.56;5056536;28;56062;-75
2022/01/12 08:38:25;;;;;;;;;47.25;35.00;;;;;20.57;39.71;103027.84;5039316;28;45848;-75
2022/01/12 08:40:50;;;;;;;;;44.00;33.25;;;;;20.51;39.79;103027.84;5056758;28;45383;-75
2022/01/12 08:43:16;;;;;;;;;45.75;36.50;;;;;20.46;39.82;103035.78;5061429;28;45399;-75
2022/01/12 08:45:41;;;;;;;;;46.25;36.25;;;;;20.40;39.50;103029.50;5042909;28;52803;-75
2022/01/12 08:48:06;;;;;;;;;48.00;38.00;;;;;20.35;39.35;103037.47;5042797;28;45352;-74
2022/01/12 08:50:32;;;;;;;;;38.00;32.50;;;;;20.32;39.77;103040.06;5059917;28;45462;-75
2022/01/12 08:52:57;;;;;;;;;49.50;37.50;;;;;20.31;40.14;103035.66;5076363;28;45316;-75
2022/01/12 08:55:23;;;;;;;;;48.00;35.75;;;;;20.31;39.53;103030.34;5058231;28;45493;-75
2022/01/12 08:57:50;;;;;;;;;51.25;37.00;;;;;20.27;39.86;103034.75;5059292;28;45559;-75
2022/01/12 09:00:18;;;;;;;;;48.00;36.75;;;;;20.28;39.61;103035.66;5038925;28;45434;-77
2022/01/12 09:02:43;;;;;;;;;49.25;36.75;;;;;20.28;40.00;103044.50;5071212;28;45466;-75
2022/01/12 09:05:11;;;;;;;;;51.00;37.75;;;;;20.28;39.64;103046.25;5020661;28;45358;-74
2022/01/12 09:07:38;;;;;;;;;52.25;38.75;;;;;20.28;39.62;103052.44;5052401;27;46708;-75
2022/01/12 09:10:05;;;;;;;;;50.75;37.25;;;;;20.27;39.54;103049.78;5059675;28;45597;-75
2022/01/12 09:12:30;;;;;;;;;47.50;37.75;;;;;20.25;39.74;103063.03;5042128;28;45542;-74
2022/01/12 09:14:55;;;;;;;;;44.00;35.75;;;;;20.28;41.99;103063.06;5059733;28;45375;-77
2022/01/12 09:17:23;;;;;;;;;45.00;34.25;;;;;20.44;42.78;103063.19;5050883;28;45878;-77
2022/01/12 09:19:48;;;;;;;;;34.75;31.00;;;;;20.58;42.86;103072.97;5053818;28;45700;-82
2022/01/12 09:22:14;;;;;;;;;47.50;34.50;;;;;20.72;43.36;103064.19;5042440;28;45463;-78
2022/01/12 09:24:41;;;;;;;;;43.25;34.00;;;;;20.82;42.81;103074.84;5040299;28;45375;-77
2022/01/12 09:27:06;;;;;;;;;39.25;30.25;;;;;20.92;43.23;103083.72;5040635;28;45926;-78
2022/01/12 09:29:32;;;;;;;;;39.50;33.50;;;;;21.00;43.35;103091.72;5037926;28;62179;-77
2022/01/12 09:31:57;;;;;;;;;34.75;31.00;;;;;21.05;43.22;103093.53;5048595;28;45280;-80
2022/01/12 09:34:22;;;;;;;;;40.25;31.50;;;;;21.13;43.33;103104.19;5075828;28;45328;-82
2022/01/12 09:36:48;;;;;;;;;31.25;28.75;;;;;21.19;43.27;103120.09;5058160;28;64851;-78
2022/01/12 09:39:13;;;;;;;;;41.25;31.00;;;;;21.22;43.25;103114.81;5059023;28;45845;-79
2022/01/12 09:41:39;;;;;;;;;39.25;33.75;;;;;21.24;43.41;103115.72;5025992;28;45346;-77
2022/01/12 09:44:04;;;;;;;;;40.00;31.50;;;;;21.30;43.46;103129.03;5042589;28;45361;-80
2022/01/12 09:46:30;;;;;;;;;37.75;31.75;;;;;21.32;43.40;103127.28;5041715;28;48205;-80
2022/01/12 09:48:56;;;;;;;;;45.75;33.00;;;;;21.33;43.28;103134.34;5058766;28;46515;-78
2022/01/12 09:51:22;;;;;;;;;35.00;29.75;;;;;21.38;43.20;103137.03;5025310;28;45359;-77
2022/01/12 09:53:47;;;;;;;;;38.00;32.75;;;;;21.39;43.27;103130.84;5041139;28;45602;-78
2022/01/12 09:56:17;;;;;;;;;35.75;30.50;;;;;21.41;43.48;103131.72;5056113;28;47052;-74
2022/01/12 09:58:43;;;;;;;;;33.75;29.25;;;;;21.45;43.67;103137.03;5023374;28;45672;-78
2022/01/12 10:01:09;;;;;;;;;39.00;31.75;;;;;21.48;43.65;103130.84;5020377;28;45709;-75
2022/01/12 10:03:35;;;;;;;;;38.50;32.00;;;;;21.51;43.49;103132.63;5041245;28;45634;-76
2022/01/12 10:06:11;;;;;;;;;38.00;30.75;;;;;21.52;43.23;103137.94;5029476;28;47119;-75
2022/01/12 10:08:36;;;;;;;;;38.50;32.25;;;;;21.54;43.07;103132.63;5042389;28;45347;-75
2022/01/12 10:11:05;;;;;;;;;40.00;32.75;;;;;21.56;43.04;103137.06;5055919;28;49925;-76
2022/01/12 10:13:31;;;;;;;;;44.75;33.50;;;;;21.57;43.36;103132.66;5059669;28;45491;-75
2022/01/12 10:15:56;;;;;;;;;37.50;33.00;;;;;21.57;43.50;103132.66;5058490;28;47904;-75
2022/01/12 10:18:24;;;;;;;;;38.25;31.00;;;;;21.59;43.35;103133.53;5025371;28;45915;-75
2022/01/12 10:20:50;;;;;;;;;34.75;30.75;;;;;21.59;43.31;103133.53;5058355;28;45505;-75
2022/01/12 10:23:16;;;;;;;;;40.75;33.25;;;;;21.61;43.32;103137.06;5040715;28;45514;-73
2022/01/12 10:25:48;;;;;;;;;33.75;31.25;;;;;21.61;42.97;103129.97;5015889;28;47927;-73
2022/01/12 10:28:18;;;;;;;;;35.75;31.00;;;;;21.61;43.06;103134.41;5020544;28;45977;-73
2022/01/12 10:30:54;;;;;;;;;36.75;31.50;;;;;21.63;43.24;103135.28;5054837;28;45623;-73
2022/01/12 10:33:25;;;;;;;;;40.75;33.25;;;;;21.64;43.36;103139.75;5041379;28;45407;-73
2022/01/12 10:35:54;;;;;;;;;37.25;32.75;;;;;21.65;42.82;103134.44;5041759;28;47166;-73
2022/01/12 10:38:21;;;;;;;;;38.75;32.25;;;;;21.65;43.15;103129.13;5041841;28;45724;-73
2022/01/12 10:40:50;;;;;;;;;41.75;34.00;;;;;21.67;42.54;103134.44;5058440;28;45319;-73
2022/01/12 10:43:37;;;;;;;;;36.00;31.75;;;;;21.67;42.90;103121.13;5025005;28;45423;-73
2022/01/12 10:46:10;;;;;;;;;36.75;32.75;;;;;21.67;42.76;103130.00;5059328;28;45462;-73
2022/01/12 10:48:39;;;;;;;;;45.50;33.50;;;;;21.67;42.69;103130.00;5046338;28;46620;-73
2022/01/12 10:51:05;;;;;;;;;38.00;31.00;;;;;21.67;42.84;103124.69;5062017;27;45367;-72
2022/01/12 10:53:33;;;;;;;;;40.50;33.50;;;;;21.67;42.40;103124.69;5058092;28;45318;-73
2022/01/12 10:56:08;;;;;;;;;38.25;32.50;;;;;21.68;42.78;103126.44;5024779;28;47047;-71
2022/01/12 10:58:33;;;;;;;;;39.75;32.25;;;;;21.66;43.73;103120.25;5073654;28;45820;-73
2022/01/12 11:00:59;;;;;;;;;37.25;32.75;;;;;21.70;43.27;103124.66;5040037;28;45757;-75
2022/01/12 11:03:24;;;;;;;;;36.00;31.25;;;;;21.72;43.71;103127.38;5057322;28;45625;-76
2022/01/12 11:05:50;;;;;;;;;37.25;32.75;;;;;21.71;43.44;103136.19;5042383;28;47000;-74
2022/01/12 11:08:19;;;;;;;;;36.00;31.75;;;;;21.73;43.77;103131.78;5058268;28;45352;-76
2022/01/12 11:10:47;;;;;;;;;34.25;27.50;;;;;21.75;44.04;103142.41;5041457;28;45280;-74
2022/01/12 11:13:13;;;;;;;;;40.00;32.00;;;;;21.76;44.24;103141.53;5041404;28;45302;-75
2022/01/12 11:15:41;;;;;;;;;39.75;33.25;;;;;21.79;43.98;103142.41;5024701;28;47086;-75
2022/01/12 11:18:09;;;;;;;;;33.75;28.75;;;;;21.79;44.06;103142.41;5041879;28;45390;-77
2022/01/12 11:20:37;;;;;;;;;37.25;33.25;;;;;21.81;43.99;103145.97;5042096;28;45348;-80
2022/01/12 11:23:07;;;;;;;;;35.25;31.50;;;;;21.82;44.33;103137.09;5041617;28;45704;-77
2022/01/12 11:25:37;;;;;;;;;36.75;30.50;;;;;21.82;43.77;103134.44;5021284;28;46833;-75
2022/01/12 11:28:27;;;;;;;;;41.00;33.00;;;;;21.81;43.60;103122.03;5073220;28;45404;-76
2022/01/12 11:31:08;;;;;;;;;39.50;32.25;;;;;21.86;43.54;103135.31;5074095;28;45473;-77
2022/01/12 11:33:33;;;;;;;;;38.50;31.75;;;;;21.86;43.99;103133.56;5042208;28;45620;-75
2022/01/12 11:36:05;;;;;;;;;35.00;27.75;;;;;21.82;43.98;103120.28;5074803;28;47025;-78
2022/01/12 11:38:42;;;;;;;;;35.25;30.50;;;;;21.86;43.65;103132.66;5062271;28;45208;-76
2022/01/12 11:41:24;;;;;;;;;40.50;33.25;;;;;21.86;43.73;103125.56;5030536;28;45433;-74
2022/01/12 11:43:51;;;;;;;;;36.00;32.75;;;;;21.87;43.52;103127.34;5046537;28;45284;-75
2022/01/12 11:46:20;;;;;;;;;34.50;31.25;;;;;21.86;43.40;103119.38;5061313;28;46421;-75
2022/01/12 11:48:53;;;;;;;;;42.25;33.75;;;;;21.85;43.26;103118.50;5044466;28;45785;-77
2022/01/12 11:51:20;;;;;;;;;37.75;31.25;;;;;21.87;43.68;103122.03;5047516;28;45273;-76
2022/01/12 11:53:47;;;;;;;;;37.25;30.25;;;;;21.87;43.10;103119.38;5044622;28;45876;-77
2022/01/12 11:56:18;;;;;;;;;36.00;31.50;;;;;21.83;43.07;103109.63;5060948;28;47235;-74
2022/01/12 11:58:57;;;;;;;;;37.75;32.00;;;;;21.86;43.08;103117.59;5077272;28;45580;-76
2022/01/12 12:01:22;;;;;;;;;38.50;32.50;;;;;21.80;43.42;103101.63;5091374;27;45276;-75
2022/01/12 12:04:04;;;;;;;;;36.00;31.50;;;;;21.80;43.34;103098.09;5094612;27;45432;-75
2022/01/12 12:06:30;;;;;;;;;42.75;32.75;;;;;21.79;42.84;103097.22;5056190;28;46807;-74
2022/01/12 12:09:17;;;;;;;;;36.25;31.75;;;;;21.79;43.42;103094.56;5041939;28;45574;-76
2022/01/12 12:11:46;;;;;;;;;39.25;32.75;;;;;21.83;43.38;103103.44;5022099;28;45513;-74
2022/01/12 12:14:12;;;;;;;;;40.25;31.25;;;;;21.82;43.53;103101.66;5042579;28;45458;-75
2022/01/12 12:16:38;;;;;;;;;36.00;33.00;;;;;21.84;44.82;103099.88;5043833;28;45387;-74
2022/01/12 12:19:06;;;;;;;;;43.25;32.75;;;;;21.86;44.73;103100.75;5037733;28;45910;-76
2022/01/12 12:21:37;;;;;;;;;44.00;30.50;;;;;21.89;45.02;103103.41;5046574;28;45379;-79
2022/01/12 12:24:13;;;;;;;;;35.50;31.75;;;;;21.93;45.09;103102.53;5060543;28;45389;-76
2022/01/12 12:26:52;;;;;;;;;38.75;33.00;;;;;21.95;45.28;103096.31;5046507;28;46430;-76
2022/01/12 12:29:18;;;;;;;;;36.25;32.50;;;;;21.98;44.76;103098.13;5059629;28;45496;-77
2022/01/12 12:31:47;;;;;;;;;36.75;29.00;;;;;21.97;44.66;103094.53;5054994;28;45303;-76